sensor_id;sensor_type;location;lat;lon;timestamp;temperature;humidity
26595;DHT22;14238;49.496;8.154;2024-02-21T00:00:14;8.10;99.90
26595;DHT22;14238;49.496;8.154;2024-02-21T00:02:40;8.10;99.90
26595;DHT22;14238;49.496;8.154;2024-02-21T00:05:05;8.10;99.90
26595;DHT22;14238;49.496;8.154;2024-02-21T00:07:31;8.10;99.90
26595;DHT22;14238;49.496;8.154;2024-02-21T00:09:56;8.10;99.90
26595;DHT22;14238;49.496;8.154;2024-02-21T00:12:22;8.20;99.90
26595;DHT22;14238;49.496;8.154;2024-02-21T00:14:47;8.10;99.90
26595;DHT22;14238;49.496;8.154;2024-02-21T00:17:13;8.10;99.90
26595;DHT22;14238;49.496;8.154;2024-02-21T00:19:38;8.10;99.90
26595;DHT22;14238;49.496;8.154;2024-02-21T00:22:04;8.10;99.90
26595;DHT22;14238;49.496;8.154;2024-02-21T00:24:30;8.10;99.90
26595;DHT22;14238;49.496;8.154;2024-02-21T00:26:55;8.10;99.90
26595;DHT22;14238;49.496;8.154;2024-02-21T00:29:21;8.00;99.90
26595;DHT22;14238;49.496;8.154;2024-02-21T00:31:48;8.10;99.90
26595;DHT22;14238;49.496;8.154;2024-02-21T00:34:14;8.00;99.90
26595;DHT22;14238;49.496;8.154;2024-02-21T00:36:39;8.10;99.90
26595;DHT22;14238;49.496;8.154;2024-02-21T00:39:05;8.10;99.90
26595;DHT22;14238;49.496;8.154;2024-02-21T00:41:31;8.00;99.90
26595;DHT22;14238;49.496;8.154;2024-02-21T00:43:57;8.00;99.90
26595;DHT22;14238;49.496;8.154;2024-02-21T00:46:23;8.00;99.90
26595;DHT22;14238;49.496;8.154;2024-02-21T00:48:48;8.00;99.90
26595;DHT22;14238;49.496;8.154;2024-02-21T00:51:15;8.00;99.90
26595;DHT22;14238;49.496;8.154;2024-02-21T00:53:41;8.00;99.90
26595;DHT22;14238;49.496;8.154;2024-02-21T00:56:07;7.90;99.90
26595;DHT22;14238;49.496;8.154;2024-02-21T00:58:32;8.00;99.90
26595;DHT22;14238;49.496;8.154;2024-02-21T01:00:58;8.00;99.90
26595;DHT22;14238;49.496;8.154;2024-02-21T01:03:23;7.90;99.90
26595;DHT22;14238;49.496;8.154;2024-02-21T01:05:49;7.90;99.90
26595;DHT22;14238;49.496;8.154;2024-02-21T01:08:14;7.90;99.90
26595;DHT22;14238;49.496;8.154;2024-02-21T01:10:40;7.90;99.90
26595;DHT22;14238;49.496;8.154;2024-02-21T01:13:06;7.90;99.90
26595;DHT22;14238;49.496;8.154;2024-02-21T01:15:32;7.90;99.90
26595;DHT22;14238;49.496;8.154;2024-02-21T01:17:58;7.90;99.90
26595;DHT22;14238;49.496;8.154;2024-02-21T01:20:24;7.90;99.90
26595;DHT22;14238;49.496;8.154;2024-02-21T01:22:49;7.90;99.90
26595;DHT22;14238;49.496;8.154;2024-02-21T01:25:15;7.90;99.90
26595;DHT22;14238;49.496;8.154;2024-02-21T01:27:41;7.90;99.90
26595;DHT22;14238;49.496;8.154;2024-02-21T01:30:07;7.90;99.90
26595;DHT22;14238;49.496;8.154;2024-02-21T01:32:33;7.90;99.90
26595;DHT22;14238;49.496;8.154;2024-02-21T01:34:59;7.80;99.90
26595;DHT22;14238;49.496;8.154;2024-02-21T01:37:24;7.90;99.90
26595;DHT22;14238;49.496;8.154;2024-02-21T01:39:50;7.80;99.90
26595;DHT22;14238;49.496;8.154;2024-02-21T01:42:16;7.80;99.90
26595;DHT22;14238;49.496;8.154;2024-02-21T01:44:41;7.80;99.90
26595;DHT22;14238;49.496;8.154;2024-02-21T01:47:07;7.80;99.90
26595;DHT22;14238;49.496;8.154;2024-02-21T01:49:33;7.80;99.90
26595;DHT22;14238;49.496;8.154;2024-02-21T01:51:59;7.80;99.90
26595;DHT22;14238;49.496;8.154;2024-02-21T01:54:25;7.80;99.90
26595;DHT22;14238;49.496;8.154;2024-02-21T01:56:54;7.80;99.90
26595;DHT22;14238;49.496;8.154;2024-02-21T01:59:21;7.80;99.90
26595;DHT22;14238;49.496;8.154;2024-02-21T02:01:47;7.70;99.90
26595;DHT22;14238;49.496;8.154;2024-02-21T02:04:13;7.70;99.90
26595;DHT22;14238;49.496;8.154;2024-02-21T02:06:40;7.70;99.90
26595;DHT22;14238;49.496;8.154;2024-02-21T02:09:06;7.70;99.90
26595;DHT22;14238;49.496;8.154;2024-02-21T02:11:32;7.70;99.90
26595;DHT22;14238;49.496;8.154;2024-02-21T02:13:57;7.70;99.90
26595;DHT22;14238;49.496;8.154;2024-02-21T02:16:23;7.70;99.90
26595;DHT22;14238;49.496;8.154;2024-02-21T02:18:49;7.70;99.90
26595;DHT22;14238;49.496;8.154;2024-02-21T02:21:35;7.70;99.90
26595;DHT22;14238;49.496;8.154;2024-02-21T02:24:03;7.60;99.90
26595;DHT22;14238;49.496;8.154;2024-02-21T02:26:30;7.60;99.90
26595;DHT22;14238;49.496;8.154;2024-02-21T02:28:55;7.70;99.90
26595;DHT22;14238;49.496;8.154;2024-02-21T02:31:21;7.60;99.90
26595;DHT22;14238;49.496;8.154;2024-02-21T02:33:46;7.70;99.90
26595;DHT22;14238;49.496;8.154;2024-02-21T02:36:13;7.70;99.90
26595;DHT22;14238;49.496;8.154;2024-02-21T02:38:40;7.60;99.90
26595;DHT22;14238;49.496;8.154;2024-02-21T02:41:06;7.60;99.90
26595;DHT22;14238;49.496;8.154;2024-02-21T02:43:31;7.70;99.90
26595;DHT22;14238;49.496;8.154;2024-02-21T02:45:57;7.70;99.90
26595;DHT22;14238;49.496;8.154;2024-02-21T02:48:23;7.70;99.90
26595;DHT22;14238;49.496;8.154;2024-02-21T02:50:48;7.60;99.90
26595;DHT22;14238;49.496;8.154;2024-02-21T02:53:15;7.70;99.90
26595;DHT22;14238;49.496;8.154;2024-02-21T02:55:40;7.60;99.90
26595;DHT22;14238;49.496;8.154;2024-02-21T02:58:06;7.60;99.90
26595;DHT22;14238;49.496;8.154;2024-02-21T03:00:31;7.60;99.90
26595;DHT22;14238;49.496;8.154;2024-02-21T03:03:01;7.60;99.90
26595;DHT22;14238;49.496;8.154;2024-02-21T03:05:29;7.60;99.90
26595;DHT22;14238;49.496;8.154;2024-02-21T03:07:55;7.70;99.90
26595;DHT22;14238;49.496;8.154;2024-02-21T03:10:20;7.70;99.90
26595;DHT22;14238;49.496;8.154;2024-02-21T03:12:46;7.60;99.90
26595;DHT22;14238;49.496;8.154;2024-02-21T03:15:13;7.60;99.90
26595;DHT22;14238;49.496;8.154;2024-02-21T03:17:38;7.50;99.90
26595;DHT22;14238;49.496;8.154;2024-02-21T03:20:05;7.50;99.90
26595;DHT22;14238;49.496;8.154;2024-02-21T03:22:33;7.50;99.90
26595;DHT22;14238;49.496;8.154;2024-02-21T03:24:59;7.40;99.90
26595;DHT22;14238;49.496;8.154;2024-02-21T03:27:25;7.40;99.90
26595;DHT22;14238;49.496;8.154;2024-02-21T03:29:50;7.30;99.90
26595;DHT22;14238;49.496;8.154;2024-02-21T03:32:16;7.20;99.90
26595;DHT22;14238;49.496;8.154;2024-02-21T03:34:41;7.20;99.90
26595;DHT22;14238;49.496;8.154;2024-02-21T03:37:07;7.10;99.90
26595;DHT22;14238;49.496;8.154;2024-02-21T03:39:32;7.10;99.90
26595;DHT22;14238;49.496;8.154;2024-02-21T03:41:58;7.10;99.90
26595;DHT22;14238;49.496;8.154;2024-02-21T03:44:26;7.10;99.90
26595;DHT22;14238;49.496;8.154;2024-02-21T03:46:52;7.20;99.90
26595;DHT22;14238;49.496;8.154;2024-02-21T03:49:18;7.10;99.90
26595;DHT22;14238;49.496;8.154;2024-02-21T03:51:43;7.00;99.90
26595;DHT22;14238;49.496;8.154;2024-02-21T03:54:09;7.00;99.90
26595;DHT22;14238;49.496;8.154;2024-02-21T03:56:38;7.00;99.90
26595;DHT22;14238;49.496;8.154;2024-02-21T03:59:08;7.20;99.90
26595;DHT22;14238;49.496;8.154;2024-02-21T04:01:36;7.20;99.90
26595;DHT22;14238;49.496;8.154;2024-02-21T04:04:02;7.30;99.90
26595;DHT22;14238;49.496;8.154;2024-02-21T04:06:28;7.30;99.90
26595;DHT22;14238;49.496;8.154;2024-02-21T04:08:54;7.30;99.90
26595;DHT22;14238;49.496;8.154;2024-02-21T04:11:19;7.30;99.90
26595;DHT22;14238;49.496;8.154;2024-02-21T04:13:45;7.40;99.90
26595;DHT22;14238;49.496;8.154;2024-02-21T04:16:14;7.40;99.90
26595;DHT22;14238;49.496;8.154;2024-02-21T04:18:39;7.30;99.90
26595;DHT22;14238;49.496;8.154;2024-02-21T04:21:05;7.30;99.90
26595;DHT22;14238;49.496;8.154;2024-02-21T04:23:31;7.40;99.90
26595;DHT22;14238;49.496;8.154;2024-02-21T04:25:56;7.30;99.90
26595;DHT22;14238;49.496;8.154;2024-02-21T04:28:22;7.30;99.90
26595;DHT22;14238;49.496;8.154;2024-02-21T04:30:47;7.30;99.90
26595;DHT22;14238;49.496;8.154;2024-02-21T04:33:13;7.40;99.90
26595;DHT22;14238;49.496;8.154;2024-02-21T04:35:38;7.40;99.90
26595;DHT22;14238;49.496;8.154;2024-02-21T04:38:04;7.30;99.90
26595;DHT22;14238;49.496;8.154;2024-02-21T04:40:30;7.30;99.90
26595;DHT22;14238;49.496;8.154;2024-02-21T04:42:56;7.30;99.90
26595;DHT22;14238;49.496;8.154;2024-02-21T04:45:22;7.10;99.90
26595;DHT22;14238;49.496;8.154;2024-02-21T04:47:48;7.00;99.90
26595;DHT22;14238;49.496;8.154;2024-02-21T04:50:13;6.90;99.90
26595;DHT22;14238;49.496;8.154;2024-02-21T04:52:39;6.90;99.90
26595;DHT22;14238;49.496;8.154;2024-02-21T04:55:05;6.80;99.90
26595;DHT22;14238;49.496;8.154;2024-02-21T04:57:31;6.80;99.90
26595;DHT22;14238;49.496;8.154;2024-02-21T04:59:56;6.70;99.90
26595;DHT22;14238;49.496;8.154;2024-02-21T05:02:22;6.70;99.90
26595;DHT22;14238;49.496;8.154;2024-02-21T05:04:50;6.60;99.90
26595;DHT22;14238;49.496;8.154;2024-02-21T05:07:15;6.60;99.90
26595;DHT22;14238;49.496;8.154;2024-02-21T05:09:42;6.50;99.90
26595;DHT22;14238;49.496;8.154;2024-02-21T05:12:08;6.50;99.90
26595;DHT22;14238;49.496;8.154;2024-02-21T05:14:33;6.50;99.90
26595;DHT22;14238;49.496;8.154;2024-02-21T05:16:59;6.50;99.90
26595;DHT22;14238;49.496;8.154;2024-02-21T05:19:25;6.60;99.90
26595;DHT22;14238;49.496;8.154;2024-02-21T05:21:50;6.50;99.90
26595;DHT22;14238;49.496;8.154;2024-02-21T05:24:16;6.50;99.90
26595;DHT22;14238;49.496;8.154;2024-02-21T05:26:41;6.50;99.90
26595;DHT22;14238;49.496;8.154;2024-02-21T05:29:07;6.50;99.90
26595;DHT22;14238;49.496;8.154;2024-02-21T05:34:17;6.50;99.90
26595;DHT22;14238;49.496;8.154;2024-02-21T05:36:42;6.40;99.90
26595;DHT22;14238;49.496;8.154;2024-02-21T05:39:08;6.40;99.90
26595;DHT22;14238;49.496;8.154;2024-02-21T05:41:33;6.30;99.90
26595;DHT22;14238;49.496;8.154;2024-02-21T05:43:59;6.20;99.90
26595;DHT22;14238;49.496;8.154;2024-02-21T05:46:24;6.20;99.90
26595;DHT22;14238;49.496;8.154;2024-02-21T05:48:50;6.10;99.90
26595;DHT22;14238;49.496;8.154;2024-02-21T05:51:15;6.00;99.90
26595;DHT22;14238;49.496;8.154;2024-02-21T05:53:41;6.00;99.90
26595;DHT22;14238;49.496;8.154;2024-02-21T05:56:13;6.00;99.90
26595;DHT22;14238;49.496;8.154;2024-02-21T05:58:39;6.00;99.90
26595;DHT22;14238;49.496;8.154;2024-02-21T06:01:05;5.90;99.90
26595;DHT22;14238;49.496;8.154;2024-02-21T06:03:32;5.80;99.90
26595;DHT22;14238;49.496;8.154;2024-02-21T06:05:58;5.70;99.90
26595;DHT22;14238;49.496;8.154;2024-02-21T06:08:23;5.70;99.90
26595;DHT22;14238;49.496;8.154;2024-02-21T06:10:49;5.70;99.90
26595;DHT22;14238;49.496;8.154;2024-02-21T06:13:17;5.60;99.90
26595;DHT22;14238;49.496;8.154;2024-02-21T06:15:42;5.60;99.90
26595;DHT22;14238;49.496;8.154;2024-02-21T06:18:08;5.50;99.90
26595;DHT22;14238;49.496;8.154;2024-02-21T06:20:33;5.70;99.90
26595;DHT22;14238;49.496;8.154;2024-02-21T06:23:01;5.60;99.90
26595;DHT22;14238;49.496;8.154;2024-02-21T06:25:27;5.70;99.90
26595;DHT22;14238;49.496;8.154;2024-02-21T06:27:52;5.70;99.90
26595;DHT22;14238;49.496;8.154;2024-02-21T06:30:18;5.70;99.90
26595;DHT22;14238;49.496;8.154;2024-02-21T06:32:43;5.60;99.90
26595;DHT22;14238;49.496;8.154;2024-02-21T06:35:09;5.60;99.90
26595;DHT22;14238;49.496;8.154;2024-02-21T06:37:34;5.70;99.90
26595;DHT22;14238;49.496;8.154;2024-02-21T06:40:00;5.70;99.90
26595;DHT22;14238;49.496;8.154;2024-02-21T06:42:25;5.60;99.90
26595;DHT22;14238;49.496;8.154;2024-02-21T06:44:51;5.70;99.90
26595;DHT22;14238;49.496;8.154;2024-02-21T06:47:17;5.80;99.90
26595;DHT22;14238;49.496;8.154;2024-02-21T06:49:42;5.80;99.90
26595;DHT22;14238;49.496;8.154;2024-02-21T06:52:08;5.90;99.90
26595;DHT22;14238;49.496;8.154;2024-02-21T06:54:33;5.90;99.90
26595;DHT22;14238;49.496;8.154;2024-02-21T06:56:59;5.90;99.90
26595;DHT22;14238;49.496;8.154;2024-02-21T06:59:25;5.90;99.90
26595;DHT22;14238;49.496;8.154;2024-02-21T07:01:54;5.90;99.90
26595;DHT22;14238;49.496;8.154;2024-02-21T07:04:21;5.90;99.90
26595;DHT22;14238;49.496;8.154;2024-02-21T07:06:46;6.00;99.90
26595;DHT22;14238;49.496;8.154;2024-02-21T07:09:12;6.00;99.90
26595;DHT22;14238;49.496;8.154;2024-02-21T07:11:37;6.00;99.90
26595;DHT22;14238;49.496;8.154;2024-02-21T07:14:03;6.00;99.90
26595;DHT22;14238;49.496;8.154;2024-02-21T07:16:28;6.00;99.90
26595;DHT22;14238;49.496;8.154;2024-02-21T07:18:55;6.00;99.90
26595;DHT22;14238;49.496;8.154;2024-02-21T07:21:20;6.00;99.90
26595;DHT22;14238;49.496;8.154;2024-02-21T07:23:46;6.00;99.90
26595;DHT22;14238;49.496;8.154;2024-02-21T07:26:11;6.00;99.90
26595;DHT22;14238;49.496;8.154;2024-02-21T07:28:37;6.00;99.90
26595;DHT22;14238;49.496;8.154;2024-02-21T07:31:03;6.00;99.90
26595;DHT22;14238;49.496;8.154;2024-02-21T07:33:28;6.00;99.90
26595;DHT22;14238;49.496;8.154;2024-02-21T07:35:56;6.10;99.90
26595;DHT22;14238;49.496;8.154;2024-02-21T07:38:21;6.10;99.90
26595;DHT22;14238;49.496;8.154;2024-02-21T07:40:47;6.30;99.90
26595;DHT22;14238;49.496;8.154;2024-02-21T07:43:13;6.40;99.90
26595;DHT22;14238;49.496;8.154;2024-02-21T07:45:39;6.60;99.90
26595;DHT22;14238;49.496;8.154;2024-02-21T07:48:05;6.80;99.90
26595;DHT22;14238;49.496;8.154;2024-02-21T07:50:31;6.90;99.90
26595;DHT22;14238;49.496;8.154;2024-02-21T07:52:57;7.00;99.90
26595;DHT22;14238;49.496;8.154;2024-02-21T07:55:22;7.10;99.90
26595;DHT22;14238;49.496;8.154;2024-02-21T07:57:48;7.20;99.90
26595;DHT22;14238;49.496;8.154;2024-02-21T08:00:15;7.20;99.90
26595;DHT22;14238;49.496;8.154;2024-02-21T08:02:51;7.20;99.90
26595;DHT22;14238;49.496;8.154;2024-02-21T08:05:16;7.00;99.90
26595;DHT22;14238;49.496;8.154;2024-02-21T08:07:42;7.00;99.90
26595;DHT22;14238;49.496;8.154;2024-02-21T08:10:08;7.00;99.90
26595;DHT22;14238;49.496;8.154;2024-02-21T08:12:34;7.00;99.90
26595;DHT22;14238;49.496;8.154;2024-02-21T08:15:00;6.90;99.90
26595;DHT22;14238;49.496;8.154;2024-02-21T08:17:25;7.00;99.90
26595;DHT22;14238;49.496;8.154;2024-02-21T08:19:51;7.20;99.90
26595;DHT22;14238;49.496;8.154;2024-02-21T08:22:16;7.20;99.90
26595;DHT22;14238;49.496;8.154;2024-02-21T08:24:42;7.30;99.90
26595;DHT22;14238;49.496;8.154;2024-02-21T08:27:08;7.20;99.90
26595;DHT22;14238;49.496;8.154;2024-02-21T08:29:33;7.30;99.90
26595;DHT22;14238;49.496;8.154;2024-02-21T08:31:59;7.40;99.90
26595;DHT22;14238;49.496;8.154;2024-02-21T08:34:24;7.50;99.90
26595;DHT22;14238;49.496;8.154;2024-02-21T08:36:50;7.40;99.90
26595;DHT22;14238;49.496;8.154;2024-02-21T08:39:16;7.40;99.90
26595;DHT22;14238;49.496;8.154;2024-02-21T08:41:42;7.40;99.90
26595;DHT22;14238;49.496;8.154;2024-02-21T08:44:07;7.30;99.90
26595;DHT22;14238;49.496;8.154;2024-02-21T08:46:33;7.30;99.90
26595;DHT22;14238;49.496;8.154;2024-02-21T08:48:59;7.30;99.90
26595;DHT22;14238;49.496;8.154;2024-02-21T08:51:25;7.50;99.90
26595;DHT22;14238;49.496;8.154;2024-02-21T08:53:50;7.50;99.90
26595;DHT22;14238;49.496;8.154;2024-02-21T08:56:17;7.50;99.90
26595;DHT22;14238;49.496;8.154;2024-02-21T08:58:43;7.60;99.90
26595;DHT22;14238;49.496;8.154;2024-02-21T09:01:09;7.80;99.90
26595;DHT22;14238;49.496;8.154;2024-02-21T09:03:36;7.90;99.90
26595;DHT22;14238;49.496;8.154;2024-02-21T09:06:03;8.10;99.90
26595;DHT22;14238;49.496;8.154;2024-02-21T09:08:29;8.30;99.90
26595;DHT22;14238;49.496;8.154;2024-02-21T09:10:55;8.40;99.90
26595;DHT22;14238;49.496;8.154;2024-02-21T09:13:20;8.50;99.90
26595;DHT22;14238;49.496;8.154;2024-02-21T09:15:47;8.70;99.90
26595;DHT22;14238;49.496;8.154;2024-02-21T09:18:14;8.60;99.90
26595;DHT22;14238;49.496;8.154;2024-02-21T09:20:39;8.70;99.90
26595;DHT22;14238;49.496;8.154;2024-02-21T09:23:05;8.70;99.90
26595;DHT22;14238;49.496;8.154;2024-02-21T09:25:30;8.70;99.90
26595;DHT22;14238;49.496;8.154;2024-02-21T09:27:57;8.80;99.90
26595;DHT22;14238;49.496;8.154;2024-02-21T09:30:23;9.00;99.90
26595;DHT22;14238;49.496;8.154;2024-02-21T09:32:49;9.20;99.90
26595;DHT22;14238;49.496;8.154;2024-02-21T09:35:15;9.30;99.90
26595;DHT22;14238;49.496;8.154;2024-02-21T09:37:40;9.10;99.90
26595;DHT22;14238;49.496;8.154;2024-02-21T09:40:06;9.10;99.90
26595;DHT22;14238;49.496;8.154;2024-02-21T09:42:38;9.20;99.90
26595;DHT22;14238;49.496;8.154;2024-02-21T09:45:08;9.30;99.90
26595;DHT22;14238;49.496;8.154;2024-02-21T09:50:29;9.50;99.90
26595;DHT22;14238;49.496;8.154;2024-02-21T09:52:57;9.80;99.90
26595;DHT22;14238;49.496;8.154;2024-02-21T09:55:24;9.70;99.90
26595;DHT22;14238;49.496;8.154;2024-02-21T09:57:53;9.80;99.90
26595;DHT22;14238;49.496;8.154;2024-02-21T10:00:19;10.00;99.90
26595;DHT22;14238;49.496;8.154;2024-02-21T10:02:48;9.90;99.90
26595;DHT22;14238;49.496;8.154;2024-02-21T10:05:14;10.10;99.90
26595;DHT22;14238;49.496;8.154;2024-02-21T10:07:40;10.20;99.90
26595;DHT22;14238;49.496;8.154;2024-02-21T10:10:07;10.40;99.90
26595;DHT22;14238;49.496;8.154;2024-02-21T10:12:32;10.60;99.90
26595;DHT22;14238;49.496;8.154;2024-02-21T10:15:05;10.80;99.90
26595;DHT22;14238;49.496;8.154;2024-02-21T10:17:32;10.70;99.90
26595;DHT22;14238;49.496;8.154;2024-02-21T10:20:10;10.70;99.90
26595;DHT22;14238;49.496;8.154;2024-02-21T10:22:38;10.60;99.90
26595;DHT22;14238;49.496;8.154;2024-02-21T10:25:12;10.50;99.90
26595;DHT22;14238;49.496;8.154;2024-02-21T10:27:40;10.60;99.90
26595;DHT22;14238;49.496;8.154;2024-02-21T10:30:14;10.80;99.90
26595;DHT22;14238;49.496;8.154;2024-02-21T10:32:50;10.70;99.90
26595;DHT22;14238;49.496;8.154;2024-02-21T10:35:28;10.60;99.90
26595;DHT22;14238;49.496;8.154;2024-02-21T10:37:55;10.50;99.90
26595;DHT22;14238;49.496;8.154;2024-02-21T10:40:26;10.70;99.90
26595;DHT22;14238;49.496;8.154;2024-02-21T10:42:59;10.60;99.90
26595;DHT22;14238;49.496;8.154;2024-02-21T10:45:35;10.60;99.90
26595;DHT22;14238;49.496;8.154;2024-02-21T10:48:16;10.70;99.90
26595;DHT22;14238;49.496;8.154;2024-02-21T10:51:15;10.70;99.90
26595;DHT22;14238;49.496;8.154;2024-02-21T10:56:34;10.90;99.90
26595;DHT22;14238;49.496;8.154;2024-02-21T10:59:03;10.90;99.90
26595;DHT22;14238;49.496;8.154;2024-02-21T11:01:29;11.20;99.90
26595;DHT22;14238;49.496;8.154;2024-02-21T11:04:00;11.10;99.90
26595;DHT22;14238;49.496;8.154;2024-02-21T11:06:26;11.20;99.90
26595;DHT22;14238;49.496;8.154;2024-02-21T11:09:28;11.20;99.90
26595;DHT22;14238;49.496;8.154;2024-02-21T11:11:55;11.20;99.90
26595;DHT22;14238;49.496;8.154;2024-02-21T11:14:21;11.20;99.90
26595;DHT22;14238;49.496;8.154;2024-02-21T11:16:47;11.10;99.90
26595;DHT22;14238;49.496;8.154;2024-02-21T11:19:20;11.00;99.90
26595;DHT22;14238;49.496;8.154;2024-02-21T11:21:47;10.90;99.90
26595;DHT22;14238;49.496;8.154;2024-02-21T11:24:29;11.10;99.90
26595;DHT22;14238;49.496;8.154;2024-02-21T11:26:56;10.80;99.90
26595;DHT22;14238;49.496;8.154;2024-02-21T11:29:25;10.90;99.90
26595;DHT22;14238;49.496;8.154;2024-02-21T11:31:51;10.80;99.90
26595;DHT22;14238;49.496;8.154;2024-02-21T11:34:18;10.90;99.90
26595;DHT22;14238;49.496;8.154;2024-02-21T11:36:51;10.80;99.90
26595;DHT22;14238;49.496;8.154;2024-02-21T11:39:26;10.70;99.90
26595;DHT22;14238;49.496;8.154;2024-02-21T11:42:03;10.70;99.90
26595;DHT22;14238;49.496;8.154;2024-02-21T11:44:29;10.80;99.90
26595;DHT22;14238;49.496;8.154;2024-02-21T11:46:55;10.80;99.90
26595;DHT22;14238;49.496;8.154;2024-02-21T11:49:21;10.80;99.90
26595;DHT22;14238;49.496;8.154;2024-02-21T11:51:46;10.70;99.90
26595;DHT22;14238;49.496;8.154;2024-02-21T11:54:12;10.90;99.90
26595;DHT22;14238;49.496;8.154;2024-02-21T11:56:41;10.90;99.90
26595;DHT22;14238;49.496;8.154;2024-02-21T11:59:07;11.20;99.90
26595;DHT22;14238;49.496;8.154;2024-02-21T12:01:34;11.20;99.90
26595;DHT22;14238;49.496;8.154;2024-02-21T12:03:59;11.20;99.90
26595;DHT22;14238;49.496;8.154;2024-02-21T12:06:25;11.30;99.90
26595;DHT22;14238;49.496;8.154;2024-02-21T12:08:50;11.40;99.90
26595;DHT22;14238;49.496;8.154;2024-02-21T12:11:20;11.30;99.90
26595;DHT22;14238;49.496;8.154;2024-02-21T12:13:47;11.30;99.90
26595;DHT22;14238;49.496;8.154;2024-02-21T12:16:15;11.30;99.90
26595;DHT22;14238;49.496;8.154;2024-02-21T12:18:42;11.20;99.90
26595;DHT22;14238;49.496;8.154;2024-02-21T12:21:07;11.20;99.90
26595;DHT22;14238;49.496;8.154;2024-02-21T12:23:33;11.20;99.90
26595;DHT22;14238;49.496;8.154;2024-02-21T12:25:59;11.30;99.90
26595;DHT22;14238;49.496;8.154;2024-02-21T12:28:25;11.30;99.90
26595;DHT22;14238;49.496;8.154;2024-02-21T12:30:51;11.30;99.90
26595;DHT22;14238;49.496;8.154;2024-02-21T12:33:18;11.20;99.90
26595;DHT22;14238;49.496;8.154;2024-02-21T12:35:43;11.30;99.90
26595;DHT22;14238;49.496;8.154;2024-02-21T12:38:09;11.40;99.90
26595;DHT22;14238;49.496;8.154;2024-02-21T12:40:34;11.50;99.90
26595;DHT22;14238;49.496;8.154;2024-02-21T12:43:00;11.40;99.90
26595;DHT22;14238;49.496;8.154;2024-02-21T12:45:28;11.40;99.90
26595;DHT22;14238;49.496;8.154;2024-02-21T12:47:53;11.30;99.90
26595;DHT22;14238;49.496;8.154;2024-02-21T12:50:19;11.30;99.90
26595;DHT22;14238;49.496;8.154;2024-02-21T12:52:45;11.20;99.90
26595;DHT22;14238;49.496;8.154;2024-02-21T12:55:11;11.30;99.90
26595;DHT22;14238;49.496;8.154;2024-02-21T12:57:38;11.40;99.90
26595;DHT22;14238;49.496;8.154;2024-02-21T13:00:05;11.40;99.90
26595;DHT22;14238;49.496;8.154;2024-02-21T13:02:34;11.40;99.90
26595;DHT22;14238;49.496;8.154;2024-02-21T13:04:59;11.40;99.90
26595;DHT22;14238;49.496;8.154;2024-02-21T13:07:26;11.50;99.90
26595;DHT22;14238;49.496;8.154;2024-02-21T13:09:51;11.60;99.90
26595;DHT22;14238;49.496;8.154;2024-02-21T13:12:17;11.40;99.90
26595;DHT22;14238;49.496;8.154;2024-02-21T13:14:43;11.50;99.90
26595;DHT22;14238;49.496;8.154;2024-02-21T13:17:09;11.60;99.90
26595;DHT22;14238;49.496;8.154;2024-02-21T13:19:35;11.50;99.90
26595;DHT22;14238;49.496;8.154;2024-02-21T13:22:00;11.40;99.90
26595;DHT22;14238;49.496;8.154;2024-02-21T13:24:27;11.40;99.90
26595;DHT22;14238;49.496;8.154;2024-02-21T13:26:53;11.20;99.90
26595;DHT22;14238;49.496;8.154;2024-02-21T13:29:18;11.10;99.90
26595;DHT22;14238;49.496;8.154;2024-02-21T13:31:45;11.10;99.90
26595;DHT22;14238;49.496;8.154;2024-02-21T13:34:11;11.00;99.90
26595;DHT22;14238;49.496;8.154;2024-02-21T13:36:37;11.00;99.90
26595;DHT22;14238;49.496;8.154;2024-02-21T13:39:02;10.90;99.90
26595;DHT22;14238;49.496;8.154;2024-02-21T13:41:30;10.90;99.90
26595;DHT22;14238;49.496;8.154;2024-02-21T13:43:56;10.80;99.90
26595;DHT22;14238;49.496;8.154;2024-02-21T13:46:21;10.80;99.90
26595;DHT22;14238;49.496;8.154;2024-02-21T13:48:47;10.90;99.90
26595;DHT22;14238;49.496;8.154;2024-02-21T13:51:13;10.80;99.90
26595;DHT22;14238;49.496;8.154;2024-02-21T13:53:38;10.80;99.90
26595;DHT22;14238;49.496;8.154;2024-02-21T13:56:04;10.80;99.90
26595;DHT22;14238;49.496;8.154;2024-02-21T13:58:29;10.90;99.90
26595;DHT22;14238;49.496;8.154;2024-02-21T14:00:55;10.90;99.90
26595;DHT22;14238;49.496;8.154;2024-02-21T14:03:21;10.90;99.90
26595;DHT22;14238;49.496;8.154;2024-02-21T14:05:47;10.80;99.90
26595;DHT22;14238;49.496;8.154;2024-02-21T14:08:14;10.70;99.90
26595;DHT22;14238;49.496;8.154;2024-02-21T14:10:40;10.70;99.90
26595;DHT22;14238;49.496;8.154;2024-02-21T14:13:05;10.60;99.90
26595;DHT22;14238;49.496;8.154;2024-02-21T14:15:31;10.50;99.90
26595;DHT22;14238;49.496;8.154;2024-02-21T14:17:56;10.50;99.90
26595;DHT22;14238;49.496;8.154;2024-02-21T14:20:22;10.50;99.90
26595;DHT22;14238;49.496;8.154;2024-02-21T14:22:47;10.60;99.90
26595;DHT22;14238;49.496;8.154;2024-02-21T14:25:13;10.60;99.90
26595;DHT22;14238;49.496;8.154;2024-02-21T14:27:40;10.60;99.90
26595;DHT22;14238;49.496;8.154;2024-02-21T14:30:06;10.70;99.90
26595;DHT22;14238;49.496;8.154;2024-02-21T14:32:36;10.70;99.90
26595;DHT22;14238;49.496;8.154;2024-02-21T14:35:02;10.70;99.90
26595;DHT22;14238;49.496;8.154;2024-02-21T14:37:27;10.80;99.90
26595;DHT22;14238;49.496;8.154;2024-02-21T14:39:53;10.80;99.90
26595;DHT22;14238;49.496;8.154;2024-02-21T14:42:19;10.70;99.90
26595;DHT22;14238;49.496;8.154;2024-02-21T14:44:44;10.70;99.90
26595;DHT22;14238;49.496;8.154;2024-02-21T14:47:10;10.60;99.90
26595;DHT22;14238;49.496;8.154;2024-02-21T14:49:35;10.60;99.90
26595;DHT22;14238;49.496;8.154;2024-02-21T14:52:01;10.70;99.90
26595;DHT22;14238;49.496;8.154;2024-02-21T14:54:27;10.70;99.90
26595;DHT22;14238;49.496;8.154;2024-02-21T14:56:52;10.70;99.90
26595;DHT22;14238;49.496;8.154;2024-02-21T14:59:19;10.60;99.90
26595;DHT22;14238;49.496;8.154;2024-02-21T15:01:45;10.60;99.90
26595;DHT22;14238;49.496;8.154;2024-02-21T15:04:10;10.50;99.90
26595;DHT22;14238;49.496;8.154;2024-02-21T15:06:36;10.50;99.90
26595;DHT22;14238;49.496;8.154;2024-02-21T15:09:03;10.50;99.90
26595;DHT22;14238;49.496;8.154;2024-02-21T15:11:29;10.40;99.90
26595;DHT22;14238;49.496;8.154;2024-02-21T15:13:55;10.30;99.90
26595;DHT22;14238;49.496;8.154;2024-02-21T15:16:20;10.20;99.90
26595;DHT22;14238;49.496;8.154;2024-02-21T15:18:46;10.20;99.90
26595;DHT22;14238;49.496;8.154;2024-02-21T15:21:11;10.20;99.90
26595;DHT22;14238;49.496;8.154;2024-02-21T15:23:39;10.10;99.90
26595;DHT22;14238;49.496;8.154;2024-02-21T15:26:05;10.00;99.90
26595;DHT22;14238;49.496;8.154;2024-02-21T15:28:31;10.00;99.90
26595;DHT22;14238;49.496;8.154;2024-02-21T15:30:56;9.90;99.90
26595;DHT22;14238;49.496;8.154;2024-02-21T15:33:22;9.90;99.90
26595;DHT22;14238;49.496;8.154;2024-02-21T15:35:48;9.90;99.90
26595;DHT22;14238;49.496;8.154;2024-02-21T15:38:13;9.80;99.90
26595;DHT22;14238;49.496;8.154;2024-02-21T15:40:39;9.80;99.90
26595;DHT22;14238;49.496;8.154;2024-02-21T15:43:04;9.80;99.90